This is the latest recevied weather packets stored in our database for station/object CE3TL-WX. If no packets are shown the sender has not sent any weather packets the latest 10 day(s).
| Time | Temp. | Humidity | Pressure | Rain* | Wind** | Luminosity | Snow |
|---|---|---|---|---|---|---|---|
| 1777841258 | 21.67° C | 34% | 1024.1 hPa | - | - | - | - |
| 1777840724 | 21.67° C | 34% | 1024 hPa | - | - | - | - |
| 1777840189 | 21.67° C | 34% | 1024.1 hPa | - | - | - | - |
| 1777838557 | 22.22° C | 35% | 1023.9 hPa | - | - | - | - |
| 1777838023 | 22.22° C | 35% | 1023.9 hPa | - | - | - | - |
| 1777837489 | 22.22° C | 35% | 1023.8 hPa | - | - | - | - |
| 1777836956 | 22.22° C | 38% | 1024 hPa | - | - | - | - |
| 1777836420 | 22.78° C | 37% | 1023.9 hPa | - | - | - | - |
| 1777835886 | 22.78° C | 39% | 1024.1 hPa | - | - | - | - |
| 1777835352 | 22.22° C | 37% | 1023.8 hPa | - | - | - | - |
| 1777834817 | 22.78° C | 37% | 1024 hPa | - | - | - | - |
| 1777834282 | 22.78° C | 35% | 1024 hPa | - | - | - | - |
| 1777833748 | 22.22° C | 35% | 1023.8 hPa | - | - | - | - |
| 1777833214 | 22.22° C | 36% | 1023.8 hPa | - | - | - | - |
| 1777832679 | 21.67° C | 35% | 1023.8 hPa | - | - | - | - |
| 1777832145 | 21.67° C | 35% | 1023.8 hPa | - | - | - | - |
| 1777831612 | 21.67° C | 37% | 1023.9 hPa | - | - | - | - |
| 1777831077 | 21.11° C | 39% | 1023.8 hPa | - | - | - | - |
| 1777830542 | 21.11° C | 40% | 1023.9 hPa | - | - | - | - |
| 1777830008 | 21.11° C | 37% | 1024 hPa | - | - | - | - |
| 1777829473 | 20.56° C | 43% | 1024.3 hPa | - | - | - | - |
| 1777828940 | 20° C | 44% | 1024.5 hPa | - | - | - | - |
| 1777828405 | 20° C | 45% | 1024.7 hPa | - | - | - | - |
| 1777827871 | 20° C | 41% | 1024.6 hPa | - | - | - | - |
| 1777827335 | 20° C | 42% | 1024.8 hPa | - | - | - | - |
* Rain since midnight (hover to see other rain measurements)
** Current wind speed in m/s (hover to see current wind gust speed)